East Claridon, Ohio
Current Conditions -  °F | °C
As of 8:45 AM on Friday 28 Nov 2014 (Local Time) from KCGF Reporting Station
Snow Showers Snow Showers  
Wind Chill: 15°   Ceiling: 2500
Heat Index: 27°   Visibility: 15mi
Dew Point: 18°   Wind: 14mph
Humidity: 69%   Direction: 300°WNW
Pressure: 30.33"   Gusts: NA
Location:  41.53°N, 81.11°W
Report Text: KCGF 281345Z 30012KT 15SM -SHSN OVC025 M03/M08 A3033
Loading
Personal Weather Stations






























Interactive Weather Map New forecast layout! Learn more

10-Day Weather Forecast

Advertisements
Track Severe Weather on mobile